sensor_id;sensor_type;location;lat;lon;timestamp;pressure;altitude;pressure_sealevel;temperature;humidity
27144;BME280;14672;50.250;8.312;2023-05-20T00:00:37;99251.28;;;17.98;46.21
27144;BME280;14672;50.250;8.312;2023-05-20T00:03:03;99241.66;;;18.01;46.84
27144;BME280;14672;50.250;8.312;2023-05-20T00:05:29;99234.91;;;18.04;47.13
27144;BME280;14672;50.250;8.312;2023-05-20T00:07:54;99239.22;;;17.94;47.71
27144;BME280;14672;50.250;8.312;2023-05-20T00:10:20;99231.97;;;17.98;47.54
27144;BME280;14672;50.250;8.312;2023-05-20T00:12:46;99237.91;;;17.95;47.27
27144;BME280;14672;50.250;8.312;2023-05-20T00:15:12;99233.72;;;17.96;47.40
27144;BME280;14672;50.250;8.312;2023-05-20T00:17:37;99234.75;;;17.93;47.08
27144;BME280;14672;50.250;8.312;2023-05-20T00:20:05;99229.78;;;17.93;47.12
27144;BME280;14672;50.250;8.312;2023-05-20T00:22:31;99237.34;;;17.91;47.57
27144;BME280;14672;50.250;8.312;2023-05-20T00:24:56;99235.16;;;17.86;47.63
27144;BME280;14672;50.250;8.312;2023-05-20T00:27:22;99227.25;;;17.80;47.99
27144;BME280;14672;50.250;8.312;2023-05-20T00:29:48;99233.28;;;17.82;48.33
27144;BME280;14672;50.250;8.312;2023-05-20T00:32:14;99237.56;;;17.72;48.59
27144;BME280;14672;50.250;8.312;2023-05-20T00:34:42;99240.16;;;17.70;48.17
27144;BME280;14672;50.250;8.312;2023-05-20T00:37:08;99231.53;;;17.56;48.43
27144;BME280;14672;50.250;8.312;2023-05-20T00:39:34;99235.13;;;17.65;48.28
27144;BME280;14672;50.250;8.312;2023-05-20T00:42:00;99232.63;;;17.73;48.23
27144;BME280;14672;50.250;8.312;2023-05-20T00:44:34;99220.31;;;17.72;48.38
27144;BME280;14672;50.250;8.312;2023-05-20T00:47:00;99224.50;;;17.71;48.29
27144;BME280;14672;50.250;8.312;2023-05-20T00:49:26;99231.25;;;17.68;48.46
27144;BME280;14672;50.250;8.312;2023-05-20T00:51:52;99226.22;;;17.63;48.45
27144;BME280;14672;50.250;8.312;2023-05-20T00:54:18;99221.34;;;17.69;48.64
27144;BME280;14672;50.250;8.312;2023-05-20T00:56:44;99227.09;;;17.69;48.47
27144;BME280;14672;50.250;8.312;2023-05-20T00:59:10;99218.19;;;17.67;48.32
27144;BME280;14672;50.250;8.312;2023-05-20T01:01:36;99224.63;;;17.62;48.64
27144;BME280;14672;50.250;8.312;2023-05-20T01:04:02;99221.34;;;17.69;48.43
27144;BME280;14672;50.250;8.312;2023-05-20T01:06:28;99216.59;;;17.66;48.47
27144;BME280;14672;50.250;8.312;2023-05-20T01:08:54;99212.44;;;17.67;48.34
27144;BME280;14672;50.250;8.312;2023-05-20T01:11:28;99223.72;;;17.71;48.36
27144;BME280;14672;50.250;8.312;2023-05-20T01:14:05;99211.25;;;17.59;48.95
27144;BME280;14672;50.250;8.312;2023-05-20T01:16:35;99210.75;;;17.61;48.35
27144;BME280;14672;50.250;8.312;2023-05-20T01:19:37;99211.84;;;17.63;48.70
27144;BME280;14672;50.250;8.312;2023-05-20T01:22:06;99221.75;;;17.62;48.76
27144;BME280;14672;50.250;8.312;2023-05-20T01:24:44;99217.88;;;17.65;48.54
27144;BME280;14672;50.250;8.312;2023-05-20T01:27:13;99212.63;;;17.64;48.64
27144;BME280;14672;50.250;8.312;2023-05-20T01:29:40;99213.00;;;17.57;49.02
27144;BME280;14672;50.250;8.312;2023-05-20T01:32:14;99209.34;;;17.56;49.02
27144;BME280;14672;50.250;8.312;2023-05-20T01:34:41;99216.22;;;17.59;48.93
27144;BME280;14672;50.250;8.312;2023-05-20T01:37:07;99210.53;;;17.64;48.92
27144;BME280;14672;50.250;8.312;2023-05-20T01:39:36;99208.47;;;17.65;49.16
27144;BME280;14672;50.250;8.312;2023-05-20T01:42:04;99205.31;;;17.63;49.40
27144;BME280;14672;50.250;8.312;2023-05-20T01:44:32;99206.81;;;17.58;49.39
27144;BME280;14672;50.250;8.312;2023-05-20T01:46:59;99203.31;;;17.54;49.98
27144;BME280;14672;50.250;8.312;2023-05-20T01:49:26;99198.47;;;17.46;50.13
27144;BME280;14672;50.250;8.312;2023-05-20T01:51:52;99199.06;;;17.50;50.16
27144;BME280;14672;50.250;8.312;2023-05-20T01:54:18;99196.59;;;17.43;50.75
27144;BME280;14672;50.250;8.312;2023-05-20T01:56:45;99196.81;;;17.39;50.89
27144;BME280;14672;50.250;8.312;2023-05-20T01:59:11;99199.47;;;17.28;50.89
27144;BME280;14672;50.250;8.312;2023-05-20T02:01:37;99194.25;;;17.26;50.81
27144;BME280;14672;50.250;8.312;2023-05-20T02:04:03;99205.72;;;17.26;51.29
27144;BME280;14672;50.250;8.312;2023-05-20T02:06:32;99200.00;;;17.12;51.80
27144;BME280;14672;50.250;8.312;2023-05-20T02:08:58;99195.72;;;17.22;50.97
27144;BME280;14672;50.250;8.312;2023-05-20T02:11:24;99197.59;;;17.25;50.78
27144;BME280;14672;50.250;8.312;2023-05-20T02:13:50;99204.56;;;17.18;50.90
27144;BME280;14672;50.250;8.312;2023-05-20T02:16:17;99202.38;;;17.13;51.26
27144;BME280;14672;50.250;8.312;2023-05-20T02:18:43;99192.97;;;17.13;51.09
27144;BME280;14672;50.250;8.312;2023-05-20T02:21:09;99192.28;;;17.18;50.78
27144;BME280;14672;50.250;8.312;2023-05-20T02:23:35;99196.94;;;17.15;51.23
27144;BME280;14672;50.250;8.312;2023-05-20T02:26:01;99196.94;;;17.15;51.56
27144;BME280;14672;50.250;8.312;2023-05-20T02:28:26;99201.88;;;17.15;51.47
27144;BME280;14672;50.250;8.312;2023-05-20T02:30:52;99193.69;;;17.08;51.50
27144;BME280;14672;50.250;8.312;2023-05-20T02:33:18;99186.53;;;17.03;51.95
27144;BME280;14672;50.250;8.312;2023-05-20T02:35:44;99196.13;;;17.00;52.19
27144;BME280;14672;50.250;8.312;2023-05-20T02:38:11;99191.50;;;17.03;51.90
27144;BME280;14672;50.250;8.312;2023-05-20T02:40:37;99186.84;;;16.90;51.92
27144;BME280;14672;50.250;8.312;2023-05-20T02:43:03;99186.53;;;16.88;52.48
27144;BME280;14672;50.250;8.312;2023-05-20T02:45:29;99184.97;;;16.87;51.96
27144;BME280;14672;50.250;8.312;2023-05-20T02:47:55;99192.88;;;16.92;52.13
27144;BME280;14672;50.250;8.312;2023-05-20T02:50:21;99186.25;;;16.86;52.32
27144;BME280;14672;50.250;8.312;2023-05-20T02:52:47;99190.69;;;16.87;52.54
27144;BME280;14672;50.250;8.312;2023-05-20T02:55:13;99189.31;;;16.83;52.26
27144;BME280;14672;50.250;8.312;2023-05-20T02:57:39;99186.66;;;16.79;52.42
27144;BME280;14672;50.250;8.312;2023-05-20T03:00:07;99193.94;;;16.80;52.53
27144;BME280;14672;50.250;8.312;2023-05-20T03:02:35;99188.81;;;16.84;52.71
27144;BME280;14672;50.250;8.312;2023-05-20T03:05:02;99186.34;;;16.77;52.87
27144;BME280;14672;50.250;8.312;2023-05-20T03:07:28;99194.94;;;16.77;53.17
27144;BME280;14672;50.250;8.312;2023-05-20T03:09:54;99182.66;;;16.77;52.90
27144;BME280;14672;50.250;8.312;2023-05-20T03:12:20;99186.53;;;16.74;53.19
27144;BME280;14672;50.250;8.312;2023-05-20T03:14:46;99179.00;;;16.76;53.06
27144;BME280;14672;50.250;8.312;2023-05-20T03:17:12;99185.84;;;16.79;53.23
27144;BME280;14672;50.250;8.312;2023-05-20T03:19:38;99175.66;;;16.78;53.29
27144;BME280;14672;50.250;8.312;2023-05-20T03:22:04;99178.22;;;16.76;53.06
27144;BME280;14672;50.250;8.312;2023-05-20T03:24:29;99167.72;;;16.73;53.62
27144;BME280;14672;50.250;8.312;2023-05-20T03:26:55;99172.78;;;16.78;53.56
27144;BME280;14672;50.250;8.312;2023-05-20T03:29:22;99178.84;;;16.80;53.75
27144;BME280;14672;50.250;8.312;2023-05-20T03:31:48;99178.03;;;16.79;53.57
27144;BME280;14672;50.250;8.312;2023-05-20T03:34:13;99181.97;;;16.82;53.55
27144;BME280;14672;50.250;8.312;2023-05-20T03:36:39;99178.22;;;16.76;53.84
27144;BME280;14672;50.250;8.312;2023-05-20T03:39:05;99171.00;;;16.80;53.60
27144;BME280;14672;50.250;8.312;2023-05-20T03:41:31;99173.25;;;16.76;53.62
27144;BME280;14672;50.250;8.312;2023-05-20T03:43:57;99174.44;;;16.84;53.41
27144;BME280;14672;50.250;8.312;2023-05-20T03:46:23;99174.66;;;16.81;53.95
27144;BME280;14672;50.250;8.312;2023-05-20T03:48:49;99169.72;;;16.81;53.75
27144;BME280;14672;50.250;8.312;2023-05-20T03:51:14;99171.19;;;16.77;53.55
27144;BME280;14672;50.250;8.312;2023-05-20T03:53:40;99172.28;;;16.79;53.82
27144;BME280;14672;50.250;8.312;2023-05-20T03:56:06;99163.38;;;16.77;54.35
27144;BME280;14672;50.250;8.312;2023-05-20T03:58:32;99163.50;;;16.83;54.30
27144;BME280;14672;50.250;8.312;2023-05-20T04:00:57;99177.31;;;16.84;53.99
27144;BME280;14672;50.250;8.312;2023-05-20T04:03:23;99177.91;;;16.88;53.98
27144;BME280;14672;50.250;8.312;2023-05-20T04:05:49;99176.25;;;16.82;54.05
27144;BME280;14672;50.250;8.312;2023-05-20T04:08:15;99172.69;;;16.87;54.11
27144;BME280;14672;50.250;8.312;2023-05-20T04:10:43;99180.59;;;16.92;53.91
27144;BME280;14672;50.250;8.312;2023-05-20T04:13:10;99177.03;;;16.82;54.53
27144;BME280;14672;50.250;8.312;2023-05-20T04:15:37;99171.91;;;16.86;54.12
27144;BME280;14672;50.250;8.312;2023-05-20T04:18:04;99173.28;;;16.91;54.11
27144;BME280;14672;50.250;8.312;2023-05-20T04:20:32;99165.84;;;16.84;54.24
27144;BME280;14672;50.250;8.312;2023-05-20T04:22:58;99164.09;;;16.87;54.63
27144;BME280;14672;50.250;8.312;2023-05-20T04:25:24;99158.03;;;16.85;54.67
27144;BME280;14672;50.250;8.312;2023-05-20T04:27:50;99161.22;;;16.87;54.46
27144;BME280;14672;50.250;8.312;2023-05-20T04:30:19;99156.16;;;16.82;55.02
27144;BME280;14672;50.250;8.312;2023-05-20T04:32:47;99155.47;;;16.87;54.86
27144;BME280;14672;50.250;8.312;2023-05-20T04:35:13;99160.41;;;16.86;54.66
27144;BME280;14672;50.250;8.312;2023-05-20T04:37:39;99159.41;;;16.89;54.20
27144;BME280;14672;50.250;8.312;2023-05-20T04:40:07;99161.00;;;16.90;54.83
27144;BME280;14672;50.250;8.312;2023-05-20T04:42:34;99161.69;;;16.85;54.75
27144;BME280;14672;50.250;8.312;2023-05-20T04:45:00;99170.50;;;16.97;54.57
27144;BME280;14672;50.250;8.312;2023-05-20T04:47:29;99163.09;;;16.90;54.84
27144;BME280;14672;50.250;8.312;2023-05-20T04:49:56;99161.41;;;16.98;54.17
27144;BME280;14672;50.250;8.312;2023-05-20T04:52:25;99158.03;;;17.00;54.97
27144;BME280;14672;50.250;8.312;2023-05-20T04:54:51;99164.38;;;17.04;54.49
27144;BME280;14672;50.250;8.312;2023-05-20T04:57:17;99165.66;;;17.03;54.73
27144;BME280;14672;50.250;8.312;2023-05-20T04:59:48;99160.50;;;17.07;54.64
27144;BME280;14672;50.250;8.312;2023-05-20T05:02:14;99160.38;;;17.16;54.46
27144;BME280;14672;50.250;8.312;2023-05-20T05:04:40;99158.81;;;17.15;54.73
27144;BME280;14672;50.250;8.312;2023-05-20T05:07:06;99157.81;;;17.18;55.16
27144;BME280;14672;50.250;8.312;2023-05-20T05:09:31;99152.88;;;17.18;55.25
27144;BME280;14672;50.250;8.312;2023-05-20T05:11:57;99150.66;;;17.28;54.46
27144;BME280;14672;50.250;8.312;2023-05-20T05:14:23;99148.31;;;17.26;54.74
27144;BME280;14672;50.250;8.312;2023-05-20T05:16:49;99149.69;;;17.31;54.20
27144;BME280;14672;50.250;8.312;2023-05-20T05:19:15;99151.25;;;17.32;54.74
27144;BME280;14672;50.250;8.312;2023-05-20T05:21:41;99146.66;;;17.40;54.31
27144;BME280;14672;50.250;8.312;2023-05-20T05:24:07;99146.09;;;17.36;54.83
27144;BME280;14672;50.250;8.312;2023-05-20T05:26:33;99133.41;;;17.43;54.70
27144;BME280;14672;50.250;8.312;2023-05-20T05:28:58;99126.94;;;17.48;54.74
27144;BME280;14672;50.250;8.312;2023-05-20T05:31:24;99135.38;;;17.51;54.62
27144;BME280;14672;50.250;8.312;2023-05-20T05:33:50;99132.56;;;17.57;54.25
27144;BME280;14672;50.250;8.312;2023-05-20T05:36:16;99142.88;;;17.63;54.40
27144;BME280;14672;50.250;8.312;2023-05-20T05:38:45;99146.63;;;17.69;54.00
27144;BME280;14672;50.250;8.312;2023-05-20T05:41:10;99138.31;;;17.71;54.17
27144;BME280;14672;50.250;8.312;2023-05-20T05:43:39;99139.66;;;17.76;53.72
27144;BME280;14672;50.250;8.312;2023-05-20T05:46:05;99139.06;;;17.72;54.13
27144;BME280;14672;50.250;8.312;2023-05-20T05:48:31;99133.53;;;17.68;54.42
27144;BME280;14672;50.250;8.312;2023-05-20T05:50:56;99128.66;;;17.74;54.17
27144;BME280;14672;50.250;8.312;2023-05-20T05:53:25;99129.47;;;17.75;54.61
27144;BME280;14672;50.250;8.312;2023-05-20T05:55:51;99134.69;;;17.76;54.29
27144;BME280;14672;50.250;8.312;2023-05-20T05:58:20;99130.31;;;17.81;54.11
27144;BME280;14672;50.250;8.312;2023-05-20T06:00:45;99136.66;;;17.85;55.27
27144;BME280;14672;50.250;8.312;2023-05-20T06:03:11;99127.81;;;17.89;54.86
27144;BME280;14672;50.250;8.312;2023-05-20T06:05:44;99126.66;;;18.01;54.12
27144;BME280;14672;50.250;8.312;2023-05-20T06:08:11;99123.56;;;18.04;54.52
27144;BME280;14672;50.250;8.312;2023-05-20T06:10:40;99107.81;;;18.00;54.81
27144;BME280;14672;50.250;8.312;2023-05-20T06:13:09;99110.09;;;18.16;53.99
27144;BME280;14672;50.250;8.312;2023-05-20T06:15:35;99113.78;;;17.96;54.73
27144;BME280;14672;50.250;8.312;2023-05-20T06:18:01;99108.19;;;18.07;54.49
27144;BME280;14672;50.250;8.312;2023-05-20T06:20:26;99111.84;;;18.08;54.56
27144;BME280;14672;50.250;8.312;2023-05-20T06:22:52;99111.69;;;18.17;54.04
27144;BME280;14672;50.250;8.312;2023-05-20T06:25:18;99112.19;;;18.15;53.85
27144;BME280;14672;50.250;8.312;2023-05-20T06:27:44;99127.66;;;18.18;53.92
27144;BME280;14672;50.250;8.312;2023-05-20T06:30:10;99121.19;;;18.23;54.45
27144;BME280;14672;50.250;8.312;2023-05-20T06:32:36;99125.34;;;18.22;54.45
27144;BME280;14672;50.250;8.312;2023-05-20T06:35:02;99123.31;;;18.28;54.04
27144;BME280;14672;50.250;8.312;2023-05-20T06:37:30;99115.94;;;18.21;54.32
27144;BME280;14672;50.250;8.312;2023-05-20T06:39:56;99120.75;;;18.30;54.13
27144;BME280;14672;50.250;8.312;2023-05-20T06:42:22;99116.44;;;18.20;54.61
27144;BME280;14672;50.250;8.312;2023-05-20T06:44:48;99116.28;;;18.29;54.31
27144;BME280;14672;50.250;8.312;2023-05-20T06:47:15;99110.97;;;18.22;53.92
27144;BME280;14672;50.250;8.312;2023-05-20T06:49:44;99103.84;;;18.17;54.43
27144;BME280;14672;50.250;8.312;2023-05-20T06:52:13;99108.66;;;18.26;54.61
27144;BME280;14672;50.250;8.312;2023-05-20T06:54:39;99105.50;;;18.24;54.53
27144;BME280;14672;50.250;8.312;2023-05-20T06:57:09;99102.38;;;18.27;54.62
27144;BME280;14672;50.250;8.312;2023-05-20T06:59:36;99100.84;;;18.26;54.83
27144;BME280;14672;50.250;8.312;2023-05-20T07:02:02;99091.91;;;18.24;55.11
27144;BME280;14672;50.250;8.312;2023-05-20T07:04:28;99083.69;;;18.38;54.04
27144;BME280;14672;50.250;8.312;2023-05-20T07:06:54;99088.56;;;18.31;54.75
27144;BME280;14672;50.250;8.312;2023-05-20T07:09:23;99088.66;;;18.37;55.23
27144;BME280;14672;50.250;8.312;2023-05-20T07:11:49;99090.00;;;18.42;54.96
27144;BME280;14672;50.250;8.312;2023-05-20T07:14:15;99095.53;;;18.45;54.66
27144;BME280;14672;50.250;8.312;2023-05-20T07:16:40;99086.25;;;18.56;54.68
27144;BME280;14672;50.250;8.312;2023-05-20T07:19:06;99084.47;;;18.58;54.91
27144;BME280;14672;50.250;8.312;2023-05-20T07:21:32;99081.69;;;18.69;54.75
27144;BME280;14672;50.250;8.312;2023-05-20T07:23:58;99086.69;;;18.74;54.54
27144;BME280;14672;50.250;8.312;2023-05-20T07:26:23;99089.59;;;18.80;54.47
27144;BME280;14672;50.250;8.312;2023-05-20T07:28:49;99085.69;;;18.77;53.93
27144;BME280;14672;50.250;8.312;2023-05-20T07:31:16;99078.97;;;18.92;54.15
27144;BME280;14672;50.250;8.312;2023-05-20T07:33:42;99083.50;;;18.98;54.11
27144;BME280;14672;50.250;8.312;2023-05-20T07:36:07;99087.16;;;18.99;54.00
27144;BME280;14672;50.250;8.312;2023-05-20T07:38:33;99084.38;;;19.10;53.82
27144;BME280;14672;50.250;8.312;2023-05-20T07:40:59;99083.41;;;19.18;53.62
27144;BME280;14672;50.250;8.312;2023-05-20T07:43:25;99075.50;;;19.19;53.98
27144;BME280;14672;50.250;8.312;2023-05-20T07:45:51;99074.28;;;19.26;53.91
27144;BME280;14672;50.250;8.312;2023-05-20T07:48:16;99080.53;;;19.24;53.56
27144;BME280;14672;50.250;8.312;2023-05-20T07:50:43;99067.22;;;19.27;53.00
27144;BME280;14672;50.250;8.312;2023-05-20T07:53:09;99065.44;;;19.40;53.20
27144;BME280;14672;50.250;8.312;2023-05-20T07:55:35;99064.72;;;19.45;53.44
27144;BME280;14672;50.250;8.312;2023-05-20T07:58:02;99065.44;;;19.35;53.53
27144;BME280;14672;50.250;8.312;2023-05-20T08:00:28;99068.31;;;19.35;53.53
27144;BME280;14672;50.250;8.312;2023-05-20T08:02:53;99064.72;;;19.45;53.35
27144;BME280;14672;50.250;8.312;2023-05-20T08:05:19;99066.75;;;19.39;53.30
27144;BME280;14672;50.250;8.312;2023-05-20T08:07:47;99059.50;;;19.49;53.11
27144;BME280;14672;50.250;8.312;2023-05-20T08:10:13;99068.16;;;19.49;53.12
27144;BME280;14672;50.250;8.312;2023-05-20T08:12:38;99065.06;;;19.58;52.74
27144;BME280;14672;50.250;8.312;2023-05-20T08:15:06;99052.50;;;19.61;52.66
27144;BME280;14672;50.250;8.312;2023-05-20T08:17:37;99057.28;;;19.70;53.36
27144;BME280;14672;50.250;8.312;2023-05-20T08:20:03;99046.03;;;19.78;52.98
27144;BME280;14672;50.250;8.312;2023-05-20T08:22:30;99037.09;;;19.76;52.60
27144;BME280;14672;50.250;8.312;2023-05-20T08:24:56;99054.69;;;19.83;52.54
27144;BME280;14672;50.250;8.312;2023-05-20T08:27:22;99034.50;;;19.83;52.74
27144;BME280;14672;50.250;8.312;2023-05-20T08:29:48;99040.31;;;19.89;52.88
27144;BME280;14672;50.250;8.312;2023-05-20T08:32:13;99043.19;;;19.89;52.57
27144;BME280;14672;50.250;8.312;2023-05-20T08:34:39;99030.91;;;19.94;52.18
27144;BME280;14672;50.250;8.312;2023-05-20T08:37:05;99034.56;;;20.00;52.44
27144;BME280;14672;50.250;8.312;2023-05-20T08:39:31;99039.28;;;20.03;52.46
27144;BME280;14672;50.250;8.312;2023-05-20T08:41:57;99032.00;;;20.13;52.24
27144;BME280;14672;50.250;8.312;2023-05-20T08:44:23;99040.13;;;20.20;52.82
27144;BME280;14672;50.250;8.312;2023-05-20T08:46:51;99031.00;;;20.33;52.56
27144;BME280;14672;50.250;8.312;2023-05-20T08:49:17;99045.19;;;20.36;52.29
27144;BME280;14672;50.250;8.312;2023-05-20T08:51:43;99038.09;;;20.32;52.34
27144;BME280;14672;50.250;8.312;2023-05-20T08:54:13;99039.44;;;20.53;51.82
27144;BME280;14672;50.250;8.312;2023-05-20T08:56:43;99039.72;;;20.66;52.18
27144;BME280;14672;50.250;8.312;2023-05-20T08:59:08;99044.94;;;20.79;52.85
27144;BME280;14672;50.250;8.312;2023-05-20T09:01:41;99039.72;;;20.94;52.12
27144;BME280;14672;50.250;8.312;2023-05-20T09:04:12;99042.59;;;20.99;52.29
27144;BME280;14672;50.250;8.312;2023-05-20T09:06:43;99033.13;;;21.16;52.49
27144;BME280;14672;50.250;8.312;2023-05-20T09:09:11;99040.47;;;21.11;52.00
27144;BME280;14672;50.250;8.312;2023-05-20T09:11:39;99039.97;;;21.24;50.67
27144;BME280;14672;50.250;8.312;2023-05-20T09:14:06;99050.69;;;21.34;51.76
27144;BME280;14672;50.250;8.312;2023-05-20T09:16:32;99033.88;;;21.38;50.72
27144;BME280;14672;50.250;8.312;2023-05-20T09:18:58;99042.78;;;21.46;51.00
27144;BME280;14672;50.250;8.312;2023-05-20T09:21:28;99039.13;;;21.45;50.39
27144;BME280;14672;50.250;8.312;2023-05-20T09:23:55;99038.59;;;21.47;49.83
27144;BME280;14672;50.250;8.312;2023-05-20T09:26:27;99041.75;;;21.43;50.50
27144;BME280;14672;50.250;8.312;2023-05-20T09:28:57;99034.09;;;21.51;49.72
27144;BME280;14672;50.250;8.312;2023-05-20T09:31:30;99040.16;;;21.48;49.44
27144;BME280;14672;50.250;8.312;2023-05-20T09:33:59;99036.75;;;21.49;49.48
27144;BME280;14672;50.250;8.312;2023-05-20T09:36:28;99046.22;;;21.44;49.95
27144;BME280;14672;50.250;8.312;2023-05-20T09:39:00;99039.88;;;21.51;50.08
27144;BME280;14672;50.250;8.312;2023-05-20T09:41:38;99045.94;;;21.53;49.97
27144;BME280;14672;50.250;8.312;2023-05-20T09:44:10;99045.66;;;21.51;49.99
27144;BME280;14672;50.250;8.312;2023-05-20T09:46:37;99033.88;;;21.49;49.50
27144;BME280;14672;50.250;8.312;2023-05-20T09:49:08;99031.75;;;21.50;49.69
27144;BME280;14672;50.250;8.312;2023-05-20T09:51:34;99035.41;;;21.50;50.03
27144;BME280;14672;50.250;8.312;2023-05-20T09:54:01;99040.41;;;21.50;49.67
27144;BME280;14672;50.250;8.312;2023-05-20T09:56:28;99030.97;;;21.49;49.82
27144;BME280;14672;50.250;8.312;2023-05-20T09:58:57;99024.91;;;21.53;49.72
27144;BME280;14672;50.250;8.312;2023-05-20T10:01:24;99017.50;;;21.63;49.68
27144;BME280;14672;50.250;8.312;2023-05-20T10:03:51;99018.81;;;21.68;50.47
27144;BME280;14672;50.250;8.312;2023-05-20T10:06:45;99013.22;;;21.92;50.60
27144;BME280;14672;50.250;8.312;2023-05-20T10:15:56;99004.69;;;22.11;49.03
27144;BME280;14672;50.250;8.312;2023-05-20T10:18:45;99007.47;;;22.27;49.36
27144;BME280;14672;50.250;8.312;2023-05-20T10:21:16;98998.47;;;22.36;49.59
27144;BME280;14672;50.250;8.312;2023-05-20T10:23:43;99010.22;;;22.49;48.94
27144;BME280;14672;50.250;8.312;2023-05-20T10:26:09;99006.47;;;22.60;48.86
27144;BME280;14672;50.250;8.312;2023-05-20T10:28:36;98999.50;;;22.74;48.69
27144;BME280;14672;50.250;8.312;2023-05-20T10:31:22;99008.38;;;22.87;48.37
27144;BME280;14672;50.250;8.312;2023-05-20T10:33:52;99010.94;;;22.97;48.37
27144;BME280;14672;50.250;8.312;2023-05-20T10:36:26;99008.09;;;22.85;47.43
27144;BME280;14672;50.250;8.312;2023-05-20T10:38:54;99011.63;;;23.03;47.46
27144;BME280;14672;50.250;8.312;2023-05-20T10:41:26;99010.03;;;23.07;47.13
27144;BME280;14672;50.250;8.312;2023-05-20T10:44:02;99016.84;;;23.10;47.11
27144;BME280;14672;50.250;8.312;2023-05-20T10:46:30;99006.03;;;23.10;47.90
27144;BME280;14672;50.250;8.312;2023-05-20T10:48:56;98999.94;;;23.14;47.50
27144;BME280;14672;50.250;8.312;2023-05-20T10:51:23;99000.53;;;23.07;47.18
27144;BME280;14672;50.250;8.312;2023-05-20T10:53:52;98997.28;;;23.16;47.02
27144;BME280;14672;50.250;8.312;2023-05-20T10:56:24;98996.72;;;23.17;47.48
27144;BME280;14672;50.250;8.312;2023-05-20T10:58:53;99010.56;;;23.30;46.45
27144;BME280;14672;50.250;8.312;2023-05-20T11:01:24;99011.84;;;23.34;46.87
27144;BME280;14672;50.250;8.312;2023-05-20T11:03:52;99012.19;;;23.55;47.03
27144;BME280;14672;50.250;8.312;2023-05-20T11:06:18;98995.88;;;23.52;46.25
27144;BME280;14672;50.250;8.312;2023-05-20T11:08:45;99015.84;;;23.31;46.00
27144;BME280;14672;50.250;8.312;2023-05-20T11:11:12;99005.75;;;23.38;45.50
27144;BME280;14672;50.250;8.312;2023-05-20T11:13:39;99000.03;;;23.57;46.01
27144;BME280;14672;50.250;8.312;2023-05-20T11:16:05;98992.09;;;23.57;46.57
27144;BME280;14672;50.250;8.312;2023-05-20T11:18:31;98984.56;;;23.92;46.72
27144;BME280;14672;50.250;8.312;2023-05-20T11:20:59;98983.28;;;24.06;46.43
27144;BME280;14672;50.250;8.312;2023-05-20T11:23:27;98982.88;;;24.20;46.52
27144;BME280;14672;50.250;8.312;2023-05-20T11:25:55;98977.06;;;24.20;45.53
27144;BME280;14672;50.250;8.312;2023-05-20T11:28:22;98976.22;;;24.01;45.52
27144;BME280;14672;50.250;8.312;2023-05-20T11:30:50;98957.59;;;24.15;44.85
27144;BME280;14672;50.250;8.312;2023-05-20T11:33:19;98948.91;;;24.28;45.19
27144;BME280;14672;50.250;8.312;2023-05-20T11:35:51;98942.97;;;24.40;44.84
27144;BME280;14672;50.250;8.312;2023-05-20T11:38:19;98937.50;;;24.49;44.59
27144;BME280;14672;50.250;8.312;2023-05-20T11:40:53;98931.75;;;24.62;44.05
27144;BME280;14672;50.250;8.312;2023-05-20T11:43:19;98933.66;;;24.73;43.85
27144;BME280;14672;50.250;8.312;2023-05-20T11:45:55;98931.91;;;24.83;43.67
27144;BME280;14672;50.250;8.312;2023-05-20T11:48:22;98930.88;;;24.80;43.19
27144;BME280;14672;50.250;8.312;2023-05-20T11:50:55;98920.81;;;24.82;42.95
27144;BME280;14672;50.250;8.312;2023-05-20T11:53:22;98926.59;;;25.00;43.52
27144;BME280;14672;50.250;8.312;2023-05-20T11:55:55;98929.94;;;25.04;42.63
27144;BME280;14672;50.250;8.312;2023-05-20T11:58:29;98924.59;;;25.21;42.62
27144;BME280;14672;50.250;8.312;2023-05-20T12:00:56;98943.84;;;25.38;42.83
27144;BME280;14672;50.250;8.312;2023-05-20T12:03:22;98928.63;;;25.18;41.45
27144;BME280;14672;50.250;8.312;2023-05-20T12:05:48;98919.34;;;25.33;42.14
27144;BME280;14672;50.250;8.312;2023-05-20T12:08:15;98923.72;;;25.40;41.81
27144;BME280;14672;50.250;8.312;2023-05-20T12:10:42;98930.88;;;25.52;41.58
27144;BME280;14672;50.250;8.312;2023-05-20T12:13:09;98916.88;;;25.50;41.56
27144;BME280;14672;50.250;8.312;2023-05-20T12:15:38;98912.63;;;25.12;41.61
27144;BME280;14672;50.250;8.312;2023-05-20T12:18:04;98930.41;;;25.21;42.04
27144;BME280;14672;50.250;8.312;2023-05-20T12:20:30;98919.34;;;25.33;41.58
27144;BME280;14672;50.250;8.312;2023-05-20T12:23:01;98917.91;;;25.40;41.65
27144;BME280;14672;50.250;8.312;2023-05-20T12:25:28;98904.78;;;25.46;41.35
27144;BME280;14672;50.250;8.312;2023-05-20T12:27:55;98908.69;;;25.49;41.79
27144;BME280;14672;50.250;8.312;2023-05-20T12:30:22;98907.03;;;25.53;41.37
27144;BME280;14672;50.250;8.312;2023-05-20T12:32:49;98915.09;;;25.47;41.90
27144;BME280;14672;50.250;8.312;2023-05-20T12:35:23;98921.22;;;25.70;41.04
27144;BME280;14672;50.250;8.312;2023-05-20T12:37:52;98907.47;;;25.70;42.13
27144;BME280;14672;50.250;8.312;2023-05-20T12:40:18;98915.75;;;25.66;41.69
27144;BME280;14672;50.250;8.312;2023-05-20T12:42:44;98902.53;;;25.79;41.33
27144;BME280;14672;50.250;8.312;2023-05-20T12:45:10;98903.84;;;25.91;42.11
27144;BME280;14672;50.250;8.312;2023-05-20T12:47:37;98920.06;;;25.99;41.50
27144;BME280;14672;50.250;8.312;2023-05-20T12:50:03;98925.22;;;25.93;41.28
27144;BME280;14672;50.250;8.312;2023-05-20T12:52:29;98917.44;;;25.75;40.41
27144;BME280;14672;50.250;8.312;2023-05-20T12:54:56;98928.72;;;25.65;40.58
27144;BME280;14672;50.250;8.312;2023-05-20T12:57:22;98928.50;;;25.50;41.34
27144;BME280;14672;50.250;8.312;2023-05-20T12:59:48;98928.38;;;25.69;40.81
27144;BME280;14672;50.250;8.312;2023-05-20T13:02:19;98927.47;;;25.87;41.11
27144;BME280;14672;50.250;8.312;2023-05-20T13:04:45;98923.88;;;25.94;40.94
27144;BME280;14672;50.250;8.312;2023-05-20T13:07:11;98926.00;;;25.81;40.92